createdAt,value
2022-08-23T00:02:23.929Z,100.00
2022-08-23T00:05:08.422Z,100.00
2022-08-23T00:07:39.255Z,100.00
2022-08-23T00:10:09.212Z,100.00
2022-08-23T00:12:39.008Z,100.00
2022-08-23T00:15:08.943Z,100.00
2022-08-23T00:17:38.226Z,100.00
2022-08-23T00:20:08.202Z,100.00
2022-08-23T00:22:36.356Z,100.00
2022-08-23T00:25:05.026Z,100.00
2022-08-23T00:27:33.577Z,100.00
2022-08-23T00:30:04.087Z,100.00
2022-08-23T00:32:36.069Z,100.00
2022-08-23T00:35:05.712Z,100.00
2022-08-23T00:37:34.671Z,100.00
2022-08-23T00:40:03.152Z,100.00
2022-08-23T00:42:53.198Z,100.00
2022-08-23T00:45:43.387Z,100.00
2022-08-23T00:48:12.706Z,100.00
2022-08-23T00:50:43.748Z,100.00
2022-08-23T00:53:17.816Z,100.00
2022-08-23T00:55:49.007Z,100.00
2022-08-23T00:58:20.767Z,100.00
2022-08-23T01:00:51.759Z,100.00
2022-08-23T01:03:20.710Z,100.00
2022-08-23T01:05:53.516Z,100.00
2022-08-23T01:08:23.731Z,100.00
2022-08-23T01:10:56.327Z,100.00
2022-08-23T01:13:30.187Z,100.00
2022-08-23T01:16:06.665Z,100.00
2022-08-23T01:18:35.416Z,100.00
2022-08-23T01:21:10.593Z,100.00
2022-08-23T01:23:44.155Z,100.00
2022-08-23T01:26:13.252Z,100.00
2022-08-23T01:28:45.719Z,100.00
2022-08-23T01:31:16.048Z,100.00
2022-08-23T01:33:45.550Z,100.00
2022-08-23T01:36:16.739Z,100.00
2022-08-23T01:38:46.415Z,100.00
2022-08-23T01:41:14.712Z,100.00
2022-08-23T01:43:43.381Z,100.00
2022-08-23T01:46:13.291Z,100.00
2022-08-23T01:48:41.719Z,100.00
2022-08-23T01:51:11.147Z,100.00
2022-08-23T01:53:39.471Z,100.00
2022-08-23T01:56:09.591Z,100.00
2022-08-23T01:58:38.628Z,100.00
2022-08-23T02:01:07.759Z,100.00
2022-08-23T02:03:37.419Z,100.00
2022-08-23T02:06:06.424Z,100.00
2022-08-23T02:08:52.619Z,100.00
2022-08-23T02:11:23.959Z,100.00
2022-08-23T02:13:53.849Z,100.00
2022-08-23T02:16:26.301Z,100.00
2022-08-23T02:18:57.401Z,100.00
2022-08-23T02:21:26.494Z,100.00
2022-08-23T02:23:54.761Z,100.00
2022-08-23T02:26:31.156Z,100.00
2022-08-23T02:28:59.761Z,100.00
2022-08-23T02:31:28.101Z,100.00
2022-08-23T02:36:43.583Z,100.00
2022-08-23T02:39:13.232Z,100.00
2022-08-23T02:41:43.311Z,100.00
2022-08-23T02:44:11.912Z,100.00
2022-08-23T02:46:41.392Z,100.00
2022-08-23T02:49:10.133Z,100.00
2022-08-23T02:51:38.583Z,100.00
2022-08-23T02:54:07.483Z,100.00
2022-08-23T02:56:36.323Z,100.00
2022-08-23T02:59:07.062Z,100.00
2022-08-23T03:01:37.900Z,100.00
2022-08-23T03:04:06.927Z,100.00
2022-08-23T03:06:35.563Z,100.00
2022-08-23T03:09:05.177Z,100.00
2022-08-23T03:11:33.594Z,100.00
2022-08-23T03:14:02.343Z,100.00
2022-08-23T03:16:33.554Z,100.00
2022-08-23T03:19:02.524Z,100.00
2022-08-23T03:21:31.473Z,100.00
2022-08-23T03:24:00.916Z,100.00
2022-08-23T03:26:29.322Z,100.00
2022-08-23T03:28:57.691Z,100.00
2022-08-23T03:31:26.132Z,100.00
2022-08-23T03:34:00.113Z,100.00
2022-08-23T03:36:28.470Z,100.00
2022-08-23T03:38:57.000Z,100.00
2022-08-23T03:41:26.252Z,100.00
2022-08-23T03:43:54.582Z,100.00
2022-08-23T03:46:24.633Z,100.00
2022-08-23T03:48:54.030Z,100.00
2022-08-23T03:51:25.670Z,100.00
2022-08-23T03:53:54.253Z,100.00
2022-08-23T03:56:23.990Z,100.00
2022-08-23T03:58:53.192Z,100.00
2022-08-23T04:01:25.274Z,100.00
2022-08-23T04:04:00.308Z,100.00
2022-08-23T04:06:32.142Z,100.00
2022-08-23T04:09:00.970Z,100.00
2022-08-23T04:11:29.322Z,100.00
2022-08-23T04:13:57.568Z,100.00
2022-08-23T04:16:25.863Z,100.00
2022-08-23T04:18:54.161Z,100.00
2022-08-23T04:21:23.814Z,100.00
2022-08-23T04:23:54.203Z,100.00
2022-08-23T04:26:25.188Z,100.00
2022-08-23T04:28:57.083Z,100.00
2022-08-23T04:31:26.792Z,100.00
2022-08-23T04:33:55.782Z,100.00
2022-08-23T04:36:25.370Z,100.00
2022-08-23T04:38:55.012Z,100.00
2022-08-23T04:41:40.802Z,100.00
2022-08-23T04:44:09.619Z,100.00
2022-08-23T04:46:37.904Z,100.00
2022-08-23T04:49:06.122Z,100.00
2022-08-23T04:51:34.422Z,100.00
2022-08-23T04:54:04.404Z,100.00
2022-08-23T04:56:32.850Z,100.00
2022-08-23T04:59:01.215Z,100.00
2022-08-23T05:01:29.523Z,100.00
2022-08-23T05:03:57.871Z,100.00
2022-08-23T05:06:26.323Z,100.00
2022-08-23T05:08:54.651Z,100.00
2022-08-23T05:11:24.384Z,100.00
2022-08-23T05:13:53.124Z,100.00
2022-08-23T05:16:21.464Z,100.00
2022-08-23T05:18:51.121Z,100.00
2022-08-23T05:21:20.870Z,100.00
2022-08-23T05:23:50.895Z,100.00
2022-08-23T05:26:24.365Z,100.00
2022-08-23T05:28:52.802Z,100.00
2022-08-23T05:31:23.692Z,100.00
2022-08-23T05:33:52.790Z,100.00
2022-08-23T05:36:22.363Z,100.00
2022-08-23T05:38:50.954Z,100.00
2022-08-23T05:41:20.937Z,100.00
2022-08-23T05:43:50.784Z,100.00
2022-08-23T05:46:21.562Z,100.00
2022-08-23T05:48:54.965Z,100.00
2022-08-23T05:51:25.382Z,100.00
2022-08-23T05:53:54.512Z,100.00
2022-08-23T05:56:24.796Z,100.00
2022-08-23T05:58:59.657Z,100.00
2022-08-23T06:01:28.846Z,100.00
2022-08-23T06:03:57.015Z,100.00
2022-08-23T06:06:36.907Z,100.00
2022-08-23T06:09:07.755Z,100.00
2022-08-23T06:11:36.680Z,100.00
2022-08-23T06:14:07.757Z,100.00
2022-08-23T06:16:38.205Z,100.00
2022-08-23T06:19:06.706Z,100.00
2022-08-23T06:21:35.125Z,100.00
2022-08-23T06:24:03.576Z,100.00
2022-08-23T06:26:34.116Z,100.00
2022-08-23T06:29:07.516Z,100.00
2022-08-23T06:31:47.536Z,100.00
2022-08-23T06:34:19.579Z,100.00
2022-08-23T06:36:49.315Z,100.00
2022-08-23T06:39:19.064Z,100.00
2022-08-23T06:41:48.734Z,100.00
2022-08-23T06:44:17.085Z,100.00
2022-08-23T06:46:48.143Z,100.00
2022-08-23T06:49:16.817Z,100.00
2022-08-23T06:51:47.025Z,100.00
2022-08-23T06:54:16.715Z,100.00
2022-08-23T06:56:45.675Z,100.00
2022-08-23T06:59:13.925Z,100.00
2022-08-23T07:01:46.005Z,100.00
2022-08-23T07:04:19.152Z,100.00
2022-08-23T07:06:47.955Z,100.00
2022-08-23T07:09:16.712Z,100.00
2022-08-23T07:11:44.925Z,100.00
2022-08-23T07:14:14.729Z,100.00
2022-08-23T07:16:45.994Z,100.00
2022-08-23T07:19:14.919Z,100.00
2022-08-23T07:21:45.880Z,100.00
2022-08-23T07:24:18.004Z,100.00
2022-08-23T07:26:48.025Z,100.00
2022-08-23T07:29:17.615Z,100.00
2022-08-23T07:31:48.194Z,100.00
2022-08-23T07:34:16.874Z,100.00
2022-08-23T07:36:47.884Z,100.00
2022-08-23T07:39:17.274Z,100.00
2022-08-23T07:41:45.666Z,100.00
2022-08-23T07:44:16.337Z,100.00
2022-08-23T07:46:47.335Z,100.00
2022-08-23T07:49:16.765Z,100.00
2022-08-23T07:51:52.109Z,100.00
2022-08-23T07:54:22.602Z,100.00
2022-08-23T07:56:50.834Z,100.00
2022-08-23T07:59:19.016Z,100.00
2022-08-23T08:01:47.281Z,100.00
2022-08-23T08:04:15.585Z,100.00
2022-08-23T08:06:46.435Z,100.00
2022-08-23T08:09:16.645Z,100.00
2022-08-23T08:11:47.505Z,100.00
2022-08-23T08:14:16.284Z,100.00
2022-08-23T08:16:46.487Z,100.00
2022-08-23T08:19:18.973Z,100.00
2022-08-23T08:21:48.895Z,100.00
2022-08-23T08:24:19.095Z,97.77
2022-08-23T08:26:47.616Z,99.35
2022-08-23T08:29:16.214Z,100.00
2022-08-23T08:31:45.906Z,100.00
2022-08-23T08:34:14.754Z,100.00
2022-08-23T08:36:44.685Z,100.00
2022-08-23T08:39:15.063Z,100.00
2022-08-23T08:42:04.582Z,100.00
2022-08-23T08:44:39.276Z,100.00
2022-08-23T08:47:10.434Z,100.00
2022-08-23T08:49:41.883Z,100.00
2022-08-23T08:52:17.470Z,100.00
2022-08-23T08:54:48.297Z,100.00
2022-08-23T08:57:22.680Z,100.00
2022-08-23T08:59:57.674Z,100.00
2022-08-23T09:02:32.772Z,98.57
2022-08-23T09:05:02.694Z,94.87
2022-08-23T09:07:42.782Z,95.08
2022-08-23T09:10:29.315Z,95.34
2022-08-23T09:13:08.664Z,96.21
2022-08-23T09:15:41.961Z,89.70
2022-08-23T09:18:12.238Z,91.53
2022-08-23T09:20:41.895Z,99.58
2022-08-23T09:23:12.537Z,92.38
2022-08-23T09:25:41.991Z,91.11
2022-08-23T09:28:11.635Z,94.78
2022-08-23T09:30:52.970Z,92.68
2022-08-23T09:33:26.381Z,94.73
2022-08-23T09:36:08.815Z,90.70
2022-08-23T09:38:39.573Z,93.94
2022-08-23T09:41:19.404Z,91.71
2022-08-23T09:43:50.462Z,86.03
2022-08-23T09:46:27.601Z,82.29
2022-08-23T09:48:59.038Z,88.48
2022-08-23T09:51:30.752Z,83.75
2022-08-23T09:54:08.952Z,81.79
2022-08-23T09:56:40.104Z,78.14
2022-08-23T09:59:26.999Z,79.18
2022-08-23T10:01:57.004Z,75.50
2022-08-23T10:04:33.043Z,68.20
2022-08-23T10:07:02.791Z,69.63
2022-08-23T10:09:34.612Z,70.88
2022-08-23T10:12:03.663Z,69.68
2022-08-23T10:14:36.982Z,66.77
2022-08-23T10:17:11.344Z,65.61
2022-08-23T10:19:47.730Z,64.20
2022-08-23T10:22:22.913Z,64.24
2022-08-23T10:24:58.834Z,63.92
2022-08-23T10:27:52.932Z,58.19
2022-08-23T10:30:24.965Z,61.23
2022-08-23T10:33:00.455Z,60.82
2022-08-23T10:35:32.955Z,60.65
2022-08-23T10:38:26.823Z,69.01
2022-08-23T10:41:00.085Z,64.32
2022-08-23T10:43:35.807Z,62.77
2022-08-23T10:46:09.181Z,64.20
2022-08-23T10:48:40.873Z,67.06
2022-08-23T10:51:13.392Z,67.70
2022-08-23T10:53:46.962Z,69.75
2022-08-23T10:56:19.441Z,65.45
2022-08-23T10:58:50.532Z,70.77
2022-08-23T11:01:23.575Z,71.34
2022-08-23T11:04:02.793Z,69.58
2022-08-23T11:06:53.019Z,66.30
2022-08-23T11:09:55.262Z,64.41
2022-08-23T11:12:27.203Z,63.01
2022-08-23T11:15:11.702Z,64.97
2022-08-23T11:17:56.478Z,66.32
2022-08-23T11:20:57.222Z,68.98
2022-08-23T11:23:48.332Z,65.15
2022-08-23T11:26:56.312Z,60.51
2022-08-23T11:29:32.726Z,63.21
2022-08-23T11:32:04.693Z,61.30
2022-08-23T11:34:37.863Z,62.35
2022-08-23T11:37:26.643Z,60.98
2022-08-23T11:40:12.640Z,55.90
2022-08-23T11:42:50.315Z,58.10
2022-08-23T11:45:30.642Z,59.97
2022-08-23T11:48:14.504Z,61.53
2022-08-23T11:51:06.103Z,58.78
2022-08-23T11:53:48.745Z,62.55
2022-08-23T11:56:38.252Z,63.69
2022-08-23T11:59:38.544Z,60.61
2022-08-23T12:02:37.275Z,54.84
2022-08-23T12:05:20.464Z,51.96
2022-08-23T12:07:55.588Z,50.99
2022-08-23T12:10:26.426Z,46.43
2022-08-23T12:13:31.083Z,47.59
2022-08-23T12:16:11.826Z,53.03
2022-08-23T12:18:53.563Z,55.26
2022-08-23T12:21:26.482Z,50.44
2022-08-23T12:24:01.295Z,51.60
2022-08-23T12:26:46.012Z,51.26
2022-08-23T12:29:25.543Z,51.22
2022-08-23T12:31:59.373Z,47.69
2022-08-23T12:34:34.473Z,46.54
2022-08-23T12:37:11.312Z,49.57
2022-08-23T12:39:48.171Z,48.52
2022-08-23T12:42:20.083Z,46.50
2022-08-23T12:45:00.013Z,41.46
2022-08-23T12:47:28.372Z,34.57
2022-08-23T12:49:59.452Z,29.53
2022-08-23T12:52:30.303Z,27.00
2022-08-23T12:55:00.404Z,24.56
2022-08-23T12:57:33.642Z,25.73
2022-08-23T13:00:19.153Z,24.47
2022-08-23T13:02:51.804Z,21.51
2022-08-23T13:05:25.082Z,21.54
2022-08-23T13:07:53.462Z,21.26
2022-08-23T13:10:23.422Z,20.17
2022-08-23T13:12:51.671Z,19.49
2022-08-23T13:15:43.457Z,21.26
2022-08-23T13:18:11.887Z,19.51
2022-08-23T13:20:40.332Z,19.40
2022-08-23T13:23:10.527Z,20.11
2022-08-23T13:25:41.790Z,17.94
2022-08-23T13:28:28.704Z,18.20
2022-08-23T13:31:02.122Z,17.73
2022-08-23T13:33:31.136Z,19.18
2022-08-23T13:36:13.011Z,17.59
2022-08-23T13:38:43.384Z,18.31
2022-08-23T13:41:25.562Z,18.03
2022-08-23T13:43:55.070Z,19.94
2022-08-23T13:46:26.551Z,24.21
2022-08-23T13:48:59.982Z,25.19
2022-08-23T13:51:31.598Z,22.25
2022-08-23T13:54:01.964Z,21.59
2022-08-23T13:56:35.096Z,19.18
2022-08-23T13:59:05.973Z,18.00
2022-08-23T14:01:34.301Z,19.17
2022-08-23T14:04:02.572Z,20.47
2022-08-23T14:06:30.902Z,19.46
2022-08-23T14:08:59.192Z,18.27
2022-08-23T14:11:27.502Z,20.31
2022-08-23T14:13:57.372Z,19.83
2022-08-23T14:16:39.442Z,20.40
2022-08-23T14:19:55.154Z,17.83
2022-08-23T14:21:58.983Z,17.40
2022-08-23T14:24:27.653Z,17.70
2022-08-23T14:26:56.893Z,18.39
2022-08-23T14:29:29.302Z,19.38
2022-08-23T14:32:00.105Z,19.23
2022-08-23T14:34:30.712Z,20.06
2022-08-23T14:39:48.375Z,18.02
2022-08-23T14:42:19.103Z,18.57
2022-08-23T14:44:48.867Z,17.49
2022-08-23T14:47:17.582Z,18.25
2022-08-23T14:49:45.903Z,17.95
2022-08-23T14:52:15.253Z,18.68
2022-08-23T14:54:44.285Z,20.34
2022-08-23T14:57:12.912Z,20.15
2022-08-23T14:59:41.482Z,19.38
2022-08-23T15:02:13.528Z,19.12
2022-08-23T15:04:42.502Z,18.38
2022-08-23T15:07:18.355Z,20.19
2022-08-23T15:09:47.585Z,22.63
2022-08-23T15:15:05.642Z,21.47
2022-08-23T15:17:39.235Z,21.18
2022-08-23T15:20:08.472Z,22.43
2022-08-23T15:22:44.402Z,25.92
2022-08-23T15:25:14.292Z,28.74
2022-08-23T15:27:42.895Z,29.07
2022-08-23T15:30:13.040Z,32.69
2022-08-23T15:32:52.221Z,32.57
2022-08-23T15:35:32.125Z,33.76
2022-08-23T15:38:00.504Z,36.42
2022-08-23T15:40:28.930Z,38.03
2022-08-23T15:42:57.263Z,40.01
2022-08-23T15:45:25.672Z,40.66
2022-08-23T15:47:59.023Z,40.54
2022-08-23T15:50:31.272Z,41.47
2022-08-23T15:52:59.594Z,42.71
2022-08-23T15:55:31.476Z,42.80
2022-08-23T15:57:59.810Z,43.79
2022-08-23T16:00:29.570Z,48.65
2022-08-23T16:03:19.304Z,56.18
2022-08-23T16:05:50.446Z,66.53
2022-08-23T16:08:22.232Z,73.35
2022-08-23T16:10:50.606Z,80.05
2022-08-23T16:13:19.657Z,80.20
2022-08-23T16:15:48.422Z,79.98
2022-08-23T16:18:18.263Z,85.34
2022-08-23T16:20:46.745Z,88.63
2022-08-23T16:23:15.082Z,92.17
2022-08-23T16:25:44.013Z,93.56
2022-08-23T16:28:12.302Z,94.07
2022-08-23T16:30:40.730Z,97.39
2022-08-23T16:33:09.085Z,95.92
2022-08-23T16:35:38.960Z,97.86
2022-08-23T16:38:07.222Z,97.72
2022-08-23T16:40:35.522Z,97.65
2022-08-23T16:43:04.160Z,100.00
2022-08-23T16:45:32.737Z,100.00
2022-08-23T16:48:01.190Z,98.28
2022-08-23T16:50:32.872Z,99.22
2022-08-23T16:53:07.096Z,100.00
2022-08-23T16:55:35.782Z,100.00
2022-08-23T16:58:04.855Z,100.00
2022-08-23T17:00:33.392Z,100.00
2022-08-23T17:03:02.166Z,100.00
2022-08-23T17:05:30.713Z,100.00
2022-08-23T17:07:59.091Z,100.00
2022-08-23T17:10:28.890Z,100.00
2022-08-23T17:12:59.829Z,100.00
2022-08-23T17:15:31.070Z,100.00
2022-08-23T17:17:59.667Z,100.00
2022-08-23T17:20:29.862Z,100.00
2022-08-23T17:22:58.465Z,100.00
2022-08-23T17:25:28.330Z,100.00
2022-08-23T17:27:58.352Z,100.00
2022-08-23T17:30:28.710Z,100.00
2022-08-23T17:32:57.703Z,100.00
2022-08-23T17:35:33.613Z,100.00
2022-08-23T17:38:03.196Z,100.00
2022-08-23T17:40:36.392Z,100.00
2022-08-23T17:43:05.421Z,100.00
2022-08-23T17:45:35.935Z,100.00
2022-08-23T17:48:04.812Z,100.00
2022-08-23T17:50:33.376Z,100.00
2022-08-23T17:53:04.458Z,100.00
2022-08-23T17:55:35.835Z,100.00
2022-08-23T17:58:04.975Z,100.00
2022-08-23T18:00:34.005Z,100.00
2022-08-23T18:03:02.536Z,100.00
2022-08-23T18:05:31.832Z,100.00
2022-08-23T18:08:00.717Z,100.00
2022-08-23T18:10:30.261Z,100.00
2022-08-23T18:13:00.126Z,100.00
2022-08-23T18:15:31.305Z,100.00
2022-08-23T18:18:00.661Z,100.00
2022-08-23T18:20:29.625Z,100.00
2022-08-23T18:22:59.368Z,100.00
2022-08-23T18:25:28.534Z,100.00
2022-08-23T18:28:08.638Z,100.00
2022-08-23T18:30:40.941Z,100.00
2022-08-23T18:33:14.702Z,100.00
2022-08-23T18:35:43.733Z,100.00
2022-08-23T18:38:13.582Z,100.00
2022-08-23T18:40:46.502Z,100.00
2022-08-23T18:43:17.005Z,100.00
2022-08-23T18:45:47.657Z,100.00
2022-08-23T18:48:16.194Z,100.00
2022-08-23T18:50:44.812Z,100.00
2022-08-23T18:53:14.372Z,100.00
2022-08-23T18:55:43.042Z,100.00
2022-08-23T18:58:11.628Z,100.00
2022-08-23T19:00:42.112Z,100.00
2022-08-23T19:03:12.511Z,100.00
2022-08-23T19:05:42.602Z,100.00
2022-08-23T19:08:11.811Z,100.00
2022-08-23T19:10:41.141Z,100.00
2022-08-23T19:13:10.031Z,100.00
2022-08-23T19:15:40.533Z,100.00
2022-08-23T19:18:09.181Z,100.00
2022-08-23T19:20:39.502Z,100.00
2022-08-23T19:23:07.992Z,100.00
2022-08-23T19:25:38.734Z,100.00
2022-08-23T19:28:07.273Z,100.00
2022-08-23T19:30:35.934Z,100.00
2022-08-23T19:33:04.890Z,100.00
2022-08-23T19:35:33.451Z,100.00
2022-08-23T19:38:03.475Z,100.00
2022-08-23T19:40:31.944Z,100.00
2022-08-23T19:43:00.625Z,100.00
2022-08-23T19:45:32.357Z,100.00
2022-08-23T19:48:00.960Z,100.00
2022-08-23T19:50:29.662Z,100.00
2022-08-23T19:52:58.329Z,100.00
2022-08-23T19:55:28.901Z,100.00
2022-08-23T19:57:58.152Z,100.00
2022-08-23T20:00:27.135Z,100.00
2022-08-23T20:02:55.593Z,100.00
2022-08-23T20:05:24.212Z,100.00
2022-08-23T20:07:52.684Z,100.00
2022-08-23T20:10:21.662Z,100.00
2022-08-23T20:12:51.412Z,100.00
2022-08-23T20:15:19.842Z,100.00
2022-08-23T20:17:48.141Z,100.00
2022-08-23T20:20:16.582Z,100.00
2022-08-23T20:23:02.155Z,100.00
2022-08-23T20:25:30.909Z,100.00
2022-08-23T20:28:05.111Z,100.00
2022-08-23T20:30:33.692Z,100.00
2022-08-23T20:33:02.144Z,100.00
2022-08-23T20:35:30.682Z,100.00
2022-08-23T20:37:59.093Z,100.00
2022-08-23T20:40:27.553Z,100.00
2022-08-23T20:42:56.546Z,100.00
2022-08-23T20:45:26.372Z,100.00
2022-08-23T20:47:54.646Z,100.00
2022-08-23T20:50:22.956Z,100.00
2022-08-23T20:52:51.216Z,100.00
2022-08-23T20:55:19.643Z,100.00
2022-08-23T20:57:47.892Z,100.00
2022-08-23T21:00:17.370Z,100.00
2022-08-23T21:02:47.071Z,100.00
2022-08-23T21:05:15.371Z,100.00
2022-08-23T21:07:43.632Z,100.00
2022-08-23T21:10:11.922Z,100.00
2022-08-23T21:12:40.277Z,100.00
2022-08-23T21:15:11.146Z,100.00
2022-08-23T21:17:39.752Z,100.00
2022-08-23T21:20:10.347Z,100.00
2022-08-23T21:22:38.572Z,100.00
2022-08-23T21:25:07.621Z,100.00
2022-08-23T21:27:35.972Z,100.00
2022-08-23T21:30:04.965Z,100.00
2022-08-23T21:32:33.282Z,100.00
2022-08-23T21:35:02.292Z,100.00
2022-08-23T21:37:31.965Z,100.00
2022-08-23T21:40:00.316Z,100.00
2022-08-23T21:42:30.285Z,100.00
2022-08-23T21:44:58.732Z,100.00
2022-08-23T21:47:27.066Z,100.00
2022-08-23T21:49:55.465Z,100.00
2022-08-23T21:52:23.716Z,100.00
2022-08-23T21:54:53.653Z,100.00
2022-08-23T21:57:21.913Z,100.00
2022-08-23T21:59:50.226Z,100.00
2022-08-23T22:02:19.514Z,100.00
2022-08-23T22:04:48.274Z,100.00
2022-08-23T22:07:16.694Z,100.00
2022-08-23T22:09:44.963Z,100.00
2022-08-23T22:12:15.303Z,100.00
2022-08-23T22:14:43.627Z,100.00
2022-08-23T22:17:11.873Z,100.00
2022-08-23T22:19:40.153Z,100.00
2022-08-23T22:22:08.402Z,100.00
2022-08-23T22:24:36.683Z,100.00
2022-08-23T22:27:05.077Z,100.00
2022-08-23T22:29:34.863Z,100.00
2022-08-23T22:32:03.309Z,100.00
2022-08-23T22:34:31.721Z,100.00
2022-08-23T22:37:00.023Z,100.00
2022-08-23T22:39:28.343Z,100.00
2022-08-23T22:41:59.216Z,100.00
2022-08-23T22:44:28.753Z,100.00
2022-08-23T22:46:59.274Z,100.00
2022-08-23T22:49:27.594Z,100.00
2022-08-23T22:51:59.178Z,100.00
2022-08-23T22:54:27.491Z,100.00
2022-08-23T22:56:55.798Z,100.00
2022-08-23T22:59:27.674Z,100.00
2022-08-23T23:02:03.644Z,100.00
2022-08-23T23:04:33.887Z,100.00
2022-08-23T23:07:02.498Z,100.00
2022-08-23T23:09:30.964Z,100.00
2022-08-23T23:11:59.416Z,100.00
2022-08-23T23:14:27.703Z,100.00
2022-08-23T23:16:56.112Z,100.00
2022-08-23T23:19:45.915Z,100.00
2022-08-23T23:22:15.259Z,100.00
2022-08-23T23:24:43.525Z,100.00
2022-08-23T23:27:12.116Z,100.00
2022-08-23T23:29:42.294Z,100.00
2022-08-23T23:32:10.524Z,100.00
2022-08-23T23:34:40.335Z,100.00
2022-08-23T23:37:08.581Z,100.00
2022-08-23T23:39:36.817Z,100.00
2022-08-23T23:42:05.615Z,100.00
2022-08-23T23:44:33.853Z,100.00
2022-08-23T23:47:02.621Z,100.00
2022-08-23T23:49:33.174Z,100.00
2022-08-23T23:52:04.475Z,100.00
2022-08-23T23:54:34.098Z,100.00
2022-08-23T23:57:02.814Z,100.00
2022-08-23T23:59:31.136Z,100.00
